Latest Weather Observations for Mount Gellibrand

IDV60801

Issued at 12:35 pm EDT Sunday 26 October 2014 (issued every 30 minutes, with the page automatically refreshed every 10 minutes)

About weather observations | Map of weather stations | Latest weather observations for VIC | Other Formats
Station Details ID: 090035 Name: MOUNT GELLIBRAND Lat: -38.23 Lon: 143.79 Height: 261.0 m
Data from the previous 72 hours. | See also: Recent months at Mount Gellibrand
Date/Time
EDT
Temp
°C
App
Temp
°C
Dew
Point
Rel
Hum
%
Delta-T
°C
Wind Press
QNH
hPa
Press
MSL
hPa
Rain
since 9 am
mm
Dir
 
Spd
km/h
Gust
km/h
Spd
kts
Gust
kts
26/12:30pm 16.5 13.9 9.4 63 3.7 NE 13 19 7 10 1013.2 1013.2 0.0
26/12:00pm 15.8 13.7 9.7 67 3.2 ENE 11 17 6 9 1013.4 1013.4 0.0
26/11:30am 14.8 13.6 9.4 70 2.8 NNE 6 9 3 5 1014.2 1014.2 0.0
26/11:00am 14.5 12.9 8.9 69 2.9 ENE 7 13 4 7 1014.3 1014.3 0.0
26/10:30am 13.5 12.2 9.2 75 2.2 S 6 9 3 5 1014.5 1014.5 0.0
26/10:00am 13.1 11.6 8.6 74 2.3 SE 6 9 3 5 1014.5 1014.5 0.0
26/09:30am 12.6 10.9 8.5 76 2.1 S 7 11 4 6 1014.4 1014.4 0.0
26/09:00am 12.0 10.4 8.7 80 1.7 SSE 7 13 4 7 1014.4 1014.4 0.0
26/08:30am 11.8 10.5 9.2 84 1.3 ESE 6 7 3 4 1014.4 1014.4 0.0
26/08:00am 11.2 10.2 8.9 86 1.2 ESE 4 6 2 3 1014.1 1014.1 0.0
26/07:30am 10.6 9.6 8.7 88 0.9 ENE 4 6 2 3 1014.1 1014.1 0.0
26/07:00am 10.4 9.3 8.5 88 0.9 E 4 6 2 3 1014.0 1014.0 0.0
26/06:30am 10.2 8.7 8.3 88 0.9 E 6 7 3 4 1013.5 1013.5 0.0
26/06:00am 10.2 8.7 8.3 88 0.9 ESE 6 6 3 3 1013.8 1013.8 0.0
26/05:30am 10.1 8.4 8.2 88 0.9 ESE 7 9 4 5 1013.6 1013.6 0.0
26/05:00am 10.1 8.4 8.2 88 0.9 SE 7 9 4 5 1013.5 1013.5 0.0
26/04:30am 10.1 8.4 8.2 88 0.9 ESE 7 9 4 5 1013.5 1013.5 0.0
26/04:00am 10.2 8.5 8.3 88 0.9 SE 7 11 4 6 1013.8 1013.8 0.0
26/03:30am 10.3 8.7 8.6 89 0.8 ESE 7 11 4 6 1013.8 1013.8 0.0
26/03:00am 10.2 7.3 8.3 88 0.9 SE 13 17 7 9 1013.8 1013.8 0.0
26/02:30am 10.4 8.0 8.8 90 0.8 ESE 11 13 6 7 1014.1 1014.1 0.0
26/02:00am 10.6 8.7 9.0 90 0.8 E 9 13 5 7 1014.6 1014.6 0.0
26/01:30am 10.7 8.0 9.1 90 0.8 E 13 17 7 9 1014.7 1014.7 0.0
26/01:00am 10.9 7.9 9.3 90 0.8 E 15 20 8 11 1015.3 1015.3 0.0
26/12:30am 10.9 8.3 9.5 91 0.7 E 13 17 7 9 1015.4 1015.4 0.0
26/12:00am 11.0 8.0 9.4 90 0.8 E 15 19 8 10 1015.6 1015.6 0.0
 
Date/Time
EDT
Temp
°C
App
Temp
°C
Dew
Point
Rel
Hum
%
Delta-T
°C
Wind Press
QNH
hPa
Press
MSL
hPa
Rain
since 9 am
mm
Dir
 
Spd
km/h
Gust
km/h
Spd
kts
Gust
kts
25/11:30pm 11.0 8.1 9.6 91 0.7 E 15 19 8 10 1015.6 1015.6 0.0
25/11:00pm 11.1 9.0 9.7 91 0.7 E 11 15 6 8 1016.2 1016.2 0.0
25/10:30pm 11.0 8.9 9.6 91 0.7 E 11 13 6 7 1016.5 1016.5 0.0
25/10:00pm 10.9 9.2 9.7 92 0.6 E 9 11 5 6 1016.8 1016.8 0.0
25/09:30pm 10.9 9.2 9.8 93 0.6 E 9 11 5 6 1016.9 1016.9 0.0
25/09:00pm 10.8 8.4 9.9 94 0.5 ESE 13 15 7 8 1016.4 1016.4 0.0
25/08:30pm 10.5 7.2 9.6 94 0.5 ESE 17 19 9 10 1016.1 1016.1 0.0
25/08:00pm 11.0 7.7 9.6 91 0.7 E 17 20 9 11 1015.7 1015.7 0.0
25/07:30pm 11.8 8.0 9.9 88 1.0 ESE 20 24 11 13 1015.6 1015.6 0.0
25/07:00pm 12.8 9.0 9.8 82 1.6 E 20 24 11 13 1015.4 1015.4 0.0
25/06:30pm 14.1 10.0 10.1 77 2.1 E 22 26 12 14 1015.2 1015.2 0.0
25/06:00pm 14.7 10.7 10.3 75 2.3 E 22 26 12 14 1015.1 1015.1 0.0
25/05:30pm 15.5 11.9 10.5 72 2.7 E 20 26 11 14 1015.0 1015.0 0.0
25/05:00pm 16.2 12.7 10.9 71 2.9 E 20 26 11 14 1014.7 1014.7 0.0
25/04:30pm 18.3 17.0 11.4 64 3.8 SE 9 22 5 12 1014.7 1014.7 0.0
25/04:00pm 19.2 18.3 11.5 61 4.3 SE 7 15 4 8 1014.9 1014.9 0.0
25/03:30pm 18.5 17.2 11.3 63 4.0 ESE 9 17 5 9 1015.0 1015.0 0.0
25/03:00pm 17.9 16.4 10.5 62 4.0 ESE 9 20 5 11 1015.3 1015.3 0.0
25/02:30pm 17.0 14.7 10.4 65 3.6 SSE 13 20 7 11 1015.9 1015.8 0.0
25/02:00pm 16.9 15.1 10.7 67 3.4 ESE 11 19 6 10 1016.3 1016.3 0.0
25/01:30pm 16.2 14.1 9.8 66 3.4 ESE 11 20 6 11 1016.5 1016.5 0.0
25/01:00pm 15.3 13.2 9.9 70 2.8 ENE 11 17 6 9 1016.7 1016.7 0.0
25/12:30pm 14.9 12.6 10.3 74 2.4 ENE 13 19 7 10 1017.0 1017.0 0.0
25/12:00pm 15.5 12.8 10.5 72 2.7 ENE 15 20 8 11 1017.2 1017.2 0.0
25/11:30am 14.9 12.4 9.7 71 2.7 E 13 17 7 9 1017.4 1017.4 0.0
25/11:00am 14.2 12.4 9.4 73 2.5 E 9 17 5 9 1017.5 1017.5 0.0
25/10:30am 15.0 13.0 10.0 72 2.6 E 11 19 6 10 1017.6 1017.6 0.0
25/10:00am 13.5 11.4 9.6 77 2.0 E 11 20 6 11 1017.4 1017.4 0.0
25/09:30am 12.3 10.5 9.5 83 1.4 E 9 13 5 7 1017.8 1017.8 0.0
25/09:00am 12.0 10.9 9.9 87 1.1 SSE 6 7 3 4 1018.0 1018.0 0.0
25/08:30am 11.7 10.4 9.9 89 0.9 SSE 7 13 4 7 1017.8 1017.8 0.0
25/08:00am 11.5 10.2 9.8 89 0.9 S 7 9 4 5 1017.6 1017.6 0.0
25/07:30am 11.4 10.0 9.0 85 1.2 SE 6 6 3 3 1017.3 1017.3 0.0
25/07:00am 11.2 10.6 8.9 86 1.2 SE 2 4 1 2 1017.3 1017.3 0.0
25/06:30am 11.0 10.7 8.6 85 1.2 CALM 0 4 0 2 1017.0 1017.0 0.0
25/06:00am 10.9 9.5 8.8 87 1.1 SSW 6 7 3 4 1016.8 1016.8 0.0
25/05:30am 10.9 9.9 9.0 88 1.0 SSW 4 6 2 3 1016.6 1016.6 0.0
25/05:00am 11.0 9.4 8.9 87 1.1 SSW 7 9 4 5 1016.4 1016.4 0.0
25/04:30am 11.0 9.1 9.1 88 1.0 SSW 9 13 5 7 1016.2 1016.2 0.0
25/04:00am 11.0 8.3 8.9 87 1.1 SW 13 19 7 10 1016.1 1016.1 0.0
25/03:30am 11.0 8.0 9.3 89 0.9 SSW 15 20 8 11 1016.2 1016.2 0.0
25/03:00am 11.0 7.5 10.1 94 0.5 SW 19 26 10 14 1016.2 1016.2 0.0
25/02:30am 11.2 8.1 10.3 94 0.5 WSW 17 22 9 12 1016.3 1016.3 0.0
25/02:00am 11.6 7.8 9.7 88 1.0 SW 20 26 11 14 1016.4 1016.4 0.0
25/01:30am 11.7 7.8 9.6 87 1.1 WSW 20 26 11 14 1016.7 1016.7 0.0
25/01:00am 11.9 8.3 9.8 87 1.1 W 19 26 10 14 1016.8 1016.8 0.0
25/12:30am 11.9 7.3 9.8 87 1.1 W 24 28 13 15 1016.7 1016.7 0.0
25/12:00am 12.1 6.8 10.0 87 1.1 WSW 28 35 15 19 1016.4 1016.4 0.0
 
Date/Time
EDT
Temp
°C
App
Temp
°C
Dew
Point
Rel
Hum
%
Delta-T
°C
Wind Press
QNH
hPa
Press
MSL
hPa
Rain
since 9 am
mm
Dir
 
Spd
km/h
Gust
km/h
Spd
kts
Gust
kts
24/11:30pm 12.1 6.9 10.2 88 1.0 WSW 28 35 15 19 1016.3 1016.3 0.0
24/11:00pm 12.1 6.9 10.2 88 1.0 WSW 28 37 15 20 1016.0 1016.0 0.0
24/10:30pm 12.0 6.0 10.2 89 0.9 WSW 32 39 17 21 1015.6 1015.6 0.0
24/10:00pm 12.2 6.7 10.6 90 0.8 WSW 30 39 16 21 1015.5 1015.5 0.0
24/09:30pm 12.4 6.5 11.1 92 0.7 WSW 33 39 18 21 1015.1 1015.1 0.0
24/09:00pm 11.9 5.5 10.6 92 0.7 WSW 35 43 19 23 1014.4 1014.4 0.0
24/08:30pm 12.3 7.0 11.2 93 0.6 SW 30 35 16 19 1014.0 1014.0 0.0
24/08:00pm 12.9 6.8 11.8 93 0.6 SW 35 41 19 22 1013.3 1013.3 0.0
24/07:30pm 13.9 8.2 11.9 88 1.1 SW 33 43 18 23 1012.9 1012.9 0.0
24/07:00pm 16.4 11.3 13.7 84 1.5 SW 33 41 18 22 1012.5 1012.4 0.0
24/06:30pm 18.4 13.4 14.1 76 2.5 WSW 33 43 18 23 1012.0 1011.9 0.0
24/06:00pm 22.4 18.4 16.2 68 3.8 WSW 32 37 17 20 1011.4 1011.4 0.0
24/05:30pm 24.5 22.1 16.5 61 5.0 SW 24 30 13 16 1011.1 1011.1 0.0
24/05:00pm 26.1 22.3 12.5 42 8.0 W 24 33 13 18 1010.8 1010.8 0.0
24/04:30pm 26.5 21.2 11.4 39 8.7 WNW 30 39 16 21 1010.7 1010.7 0.0
24/04:00pm 25.8 20.0 10.8 39 8.5 W 32 41 17 22 1010.8 1010.8 0.0
24/03:30pm 26.3 21.4 11.2 38 8.7 W 28 37 15 20 1010.8 1010.8 0.0
24/03:00pm 26.2 21.1 11.9 41 8.3 W 30 41 16 22 1010.9 1010.9 0.0
24/02:30pm 25.1 21.2 14.3 51 6.5 W 28 41 15 22 1011.2 1011.2 0.0
24/02:00pm 24.6 20.9 13.8 51 6.4 W 26 41 14 22 1011.5 1011.5 0.0
24/01:30pm 23.7 20.7 14.7 57 5.4 W 24 32 13 17 1011.6 1011.6 0.0
24/01:00pm 22.2 19.2 14.8 63 4.4 WNW 24 32 13 17 1012.0 1011.9 0.0
24/12:30pm 21.1 18.1 13.8 63 4.3 WNW 22 30 12 16 1012.1 1012.0 0.0
24/12:00pm 20.7 19.2 15.3 71 3.2 WNW 17 22 9 12 1012.3 1012.2 0.0
24/11:30am 19.2 18.2 14.7 75 2.7 WNW 13 19 7 10 1012.5 1012.4 0.0
24/11:00am 17.8 18.1 15.1 84 1.6 WNW 7 11 4 6 1012.5 1012.4 0.0
24/10:30am 16.7 17.3 15.7 94 0.6 W 7 13 4 7 1012.6 1012.5 0.0
24/10:00am 15.4 15.9 14.9 97 0.3 NW 6 9 3 5 1012.5 1012.4 0.0
24/09:30am 14.5 14.1 14.2 98 0.2 N 9 15 5 8 1012.6 1012.5 0.0
24/09:00am 14.4 13.6 14.1 98 0.2 NE 11 19 6 10 1012.4 1012.3 0.2
24/08:30am 13.9 11.8 13.7 99 0.1 E 17 22 9 12 1012.2 1012.1 0.2
24/08:00am 13.7 12.3 13.5 99 0.1 ENE 13 19 7 10 1012.6 1012.5 0.2
24/07:30am 13.5 10.7 13.2 98 0.2 E 20 24 11 13 1012.5 1012.4 0.2
24/07:00am 13.5 10.3 13.2 98 0.2 E 22 26 12 14 1012.4 1012.3 0.2
24/06:30am 13.5 9.9 13.2 98 0.2 E 24 28 13 15 1012.4 1012.3 0.2
24/06:00am 13.5 9.2 13.2 98 0.2 E 28 37 15 20 1012.1 1012.0 0.2
24/05:30am 13.5 9.6 13.2 98 0.2 E 26 32 14 17 1012.2 1012.1 0.2
24/05:00am 13.4 9.1 13.1 98 0.2 ESE 28 32 15 17 1012.5 1012.4 0.2
24/04:30am 13.4 9.4 12.9 97 0.3 ESE 26 33 14 18 1012.6 1012.5 0.2
24/04:00am 13.4 9.1 13.1 98 0.2 ESE 28 35 15 19 1012.7 1012.7 0.2
24/03:30am 13.3 8.5 13.0 98 0.2 ESE 30 35 16 19 1013.0 1013.0 0.2
24/03:00am 13.1 7.9 12.8 98 0.2 ESE 32 37 17 20 1013.1 1013.1 0.2
24/02:30am 13.0 7.8 12.7 98 0.2 ESE 32 37 17 20 1013.3 1013.3 0.2
24/02:00am 12.9 7.6 12.6 98 0.2 ESE 32 35 17 19 1013.7 1013.7 0.2
24/01:30am 12.9 8.0 12.6 98 0.2 ESE 30 37 16 20 1014.4 1014.4 0.2
24/01:00am 12.9 8.8 12.6 98 0.2 ESE 26 30 14 16 1015.0 1015.0 0.2
24/12:30am 12.9 8.4 12.6 98 0.2 ESE 28 35 15 19 1015.2 1015.2 0.2
24/12:00am 12.9 8.0 12.6 98 0.2 ESE 30 35 16 19 1015.6 1015.6 0.2
 
Date/Time
EDT
Temp
°C
App
Temp
°C
Dew
Point
Rel
Hum
%
Delta-T
°C
Wind Press
QNH
hPa
Press
MSL
hPa
Rain
since 9 am
mm
Dir
 
Spd
km/h
Gust
km/h
Spd
kts
Gust
kts
23/11:30pm 12.8 7.5 12.5 98 0.2 ESE 32 37 17 20 1015.7 1015.7 0.2
23/11:00pm 12.9 8.0 12.4 97 0.3 ESE 30 37 16 20 1016.2 1016.2 0.2
23/10:30pm 13.2 8.0 12.7 97 0.3 ESE 32 39 17 21 1016.4 1016.4 0.2
23/10:00pm 13.4 8.0 12.8 96 0.3 ESE 33 41 18 22 1016.5 1016.5 0.2
23/09:30pm 13.4 7.9 12.6 95 0.4 ESE 33 39 18 21 1016.6 1016.6 0.2
23/09:00pm 13.5 7.7 12.7 95 0.4 ESE 35 41 19 22 1016.5 1016.5 0.2
23/08:30pm 13.7 8.5 12.8 94 0.5 ESE 32 39 17 21 1016.6 1016.6 0.2
23/08:00pm 13.8 8.4 12.9 94 0.5 ESE 33 39 18 21 1016.2 1016.2 0.2
23/07:30pm 14.0 8.8 12.9 93 0.6 ESE 32 37 17 20 1016.2 1016.2 0.2
23/07:00pm 14.2 9.5 13.1 93 0.6 ESE 30 41 16 22 1016.3 1016.3 0.2
23/06:30pm 14.1 8.8 13.1 94 0.6 ESE 33 41 18 22 1016.2 1016.2 0.2
23/06:00pm 14.0 8.7 13.1 94 0.5 ESE 33 44 18 24 1016.4 1016.4 0.2
23/05:30pm 13.9 8.2 13.0 94 0.5 ESE 35 41 19 22 1016.5 1016.5 0.2
23/05:00pm 14.4 8.9 12.6 89 1.0 ESE 33 39 18 21 1016.8 1016.8 0.2
23/04:30pm 15.3 10.0 12.4 83 1.6 ESE 32 39 17 21 1016.7 1016.7 0.2
23/04:00pm 15.2 9.8 12.2 82 1.7 E 32 39 17 21 1017.0 1017.0 0.2
23/03:30pm 14.8 9.7 11.9 83 1.6 ESE 30 43 16 23 1017.4 1017.4 0.2
23/03:00pm 14.6 9.1 11.7 83 1.6 ESE 32 37 17 20 1017.7 1017.7 0.2
23/02:30pm 14.8 9.3 11.8 82 1.6 E 32 39 17 21 1018.0 1018.0 0.2
23/02:00pm 15.9 10.7 11.7 76 2.3 E 30 37 16 20 1018.2 1018.2 0.2
23/01:30pm 16.5 12.2 12.1 75 2.4 E 26 35 14 19 1018.3 1018.3 0.0
23/01:00pm 16.2 12.0 12.4 78 2.1 E 26 32 14 17 1018.5 1018.5 0.0

Other Formats:

Comma delimited format used in spreadsheet applications
http://www.bom.gov.au/fwo/IDV60801/IDV60801.95845.axf

JavaScript Object Notation format (JSON) in row-major order
http://www.bom.gov.au/fwo/IDV60801/IDV60801.95845.json